sensor_id;sensor_type;location;lat;lon;timestamp;pressure;altitude;pressure_sealevel;temperature;humidity
75617;BME280;64200;55.426;37.758;2023-05-16T00:01:06;99891.41;;;12.63;47.50
75617;BME280;64200;55.426;37.758;2023-05-16T00:06:08;99884.44;;;12.83;47.21
75617;BME280;64200;55.426;37.758;2023-05-16T00:11:09;99885.78;;;12.88;47.69
75617;BME280;64200;55.426;37.758;2023-05-16T00:16:09;99883.47;;;12.86;47.55
75617;BME280;64200;55.426;37.758;2023-05-16T00:21:10;99887.53;;;12.85;47.90
75617;BME280;64200;55.426;37.758;2023-05-16T00:26:11;99894.25;;;12.78;48.48
75617;BME280;64200;55.426;37.758;2023-05-16T00:31:11;99894.38;;;12.84;48.39
75617;BME280;64200;55.426;37.758;2023-05-16T00:36:12;99884.97;;;12.96;48.42
75617;BME280;64200;55.426;37.758;2023-05-16T00:41:13;99885.50;;;13.10;48.44
75617;BME280;64200;55.426;37.758;2023-05-16T00:46:13;99889.97;;;13.16;48.34
75617;BME280;64200;55.426;37.758;2023-05-16T00:51:15;99887.59;;;13.00;48.23
75617;BME280;64200;55.426;37.758;2023-05-16T00:56:16;99908.72;;;12.43;49.65
75617;BME280;64200;55.426;37.758;2023-05-16T01:01:18;99921.56;;;12.17;50.25
75617;BME280;64200;55.426;37.758;2023-05-16T01:06:21;99918.19;;;12.12;50.98
75617;BME280;64200;55.426;37.758;2023-05-16T01:16:32;99915.56;;;12.00;50.56
75617;BME280;64200;55.426;37.758;2023-05-16T01:22:01;99908.31;;;11.65;52.14
75617;BME280;64200;55.426;37.758;2023-05-16T01:27:04;99911.41;;;11.58;51.82
75617;BME280;64200;55.426;37.758;2023-05-16T01:32:05;99901.78;;;11.40;52.04
75617;BME280;64200;55.426;37.758;2023-05-16T01:37:18;99892.16;;;11.32;51.81
75617;BME280;64200;55.426;37.758;2023-05-16T01:42:23;99890.75;;;11.65;50.70
75617;BME280;64200;55.426;37.758;2023-05-16T01:47:27;99901.28;;;11.79;51.01
75617;BME280;64200;55.426;37.758;2023-05-16T01:52:44;99901.91;;;11.83;50.25
75617;BME280;64200;55.426;37.758;2023-05-16T01:57:46;99900.09;;;11.43;51.42
75617;BME280;64200;55.426;37.758;2023-05-16T02:02:48;99901.63;;;11.35;51.96
75617;BME280;64200;55.426;37.758;2023-05-16T02:07:48;99903.34;;;11.32;52.11
75617;BME280;64200;55.426;37.758;2023-05-16T02:12:49;99905.03;;;11.48;52.26
75617;BME280;64200;55.426;37.758;2023-05-16T02:17:50;99919.00;;;11.57;52.26
75617;BME280;64200;55.426;37.758;2023-05-16T02:22:51;99910.47;;;11.42;52.38
75617;BME280;64200;55.426;37.758;2023-05-16T02:27:51;99912.50;;;11.33;53.02
75617;BME280;64200;55.426;37.758;2023-05-16T02:32:52;99899.09;;;10.90;54.13
75617;BME280;64200;55.426;37.758;2023-05-16T02:37:53;99912.13;;;10.84;54.89
75617;BME280;64200;55.426;37.758;2023-05-16T02:42:54;99913.22;;;10.96;54.26
75617;BME280;64200;55.426;37.758;2023-05-16T02:47:55;99914.38;;;11.36;53.56
75617;BME280;64200;55.426;37.758;2023-05-16T02:52:55;99915.75;;;11.68;52.15
75617;BME280;64200;55.426;37.758;2023-05-16T02:57:58;99917.13;;;12.01;51.17
75617;BME280;64200;55.426;37.758;2023-05-16T03:02:59;99909.94;;;12.09;51.15
75617;BME280;64200;55.426;37.758;2023-05-16T03:08:00;99901.03;;;12.29;50.95
75617;BME280;64200;55.426;37.758;2023-05-16T03:13:00;99909.69;;;12.40;50.04
75617;BME280;64200;55.426;37.758;2023-05-16T03:18:01;99908.38;;;12.60;49.27
75617;BME280;64200;55.426;37.758;2023-05-16T03:23:01;99919.88;;;12.86;49.33
75617;BME280;64200;55.426;37.758;2023-05-16T03:28:04;99921.34;;;13.06;49.37
75617;BME280;64200;55.426;37.758;2023-05-16T03:33:05;99933.47;;;13.27;48.54
75617;BME280;64200;55.426;37.758;2023-05-16T03:38:05;99941.09;;;13.02;48.88
75617;BME280;64200;55.426;37.758;2023-05-16T03:43:06;99953.44;;;12.95;49.56
75617;BME280;64200;55.426;37.758;2023-05-16T03:48:07;99951.38;;;12.72;50.13
75617;BME280;64200;55.426;37.758;2023-05-16T03:53:08;99951.63;;;12.83;50.69
75617;BME280;64200;55.426;37.758;2023-05-16T03:58:09;99957.00;;;12.96;50.63
75617;BME280;64200;55.426;37.758;2023-05-16T04:03:10;99962.59;;;12.96;49.96
75617;BME280;64200;55.426;37.758;2023-05-16T04:08:10;99951.75;;;13.13;50.52
75617;BME280;64200;55.426;37.758;2023-05-16T04:13:11;99946.69;;;13.02;50.05
75617;BME280;64200;55.426;37.758;2023-05-16T04:18:11;99954.28;;;13.11;49.86
75617;BME280;64200;55.426;37.758;2023-05-16T04:23:12;99961.59;;;13.08;49.18
75617;BME280;64200;55.426;37.758;2023-05-16T04:28:13;99967.06;;;13.03;49.91
75617;BME280;64200;55.426;37.758;2023-05-16T04:33:13;99970.78;;;13.09;50.03
75617;BME280;64200;55.426;37.758;2023-05-16T04:38:14;99966.63;;;13.52;48.76
75617;BME280;64200;55.426;37.758;2023-05-16T04:43:15;99969.97;;;13.42;48.71
75617;BME280;64200;55.426;37.758;2023-05-16T04:48:16;99965.00;;;13.61;48.66
75617;BME280;64200;55.426;37.758;2023-05-16T04:53:16;99976.75;;;13.89;48.45
75617;BME280;64200;55.426;37.758;2023-05-16T04:58:17;99977.25;;;14.17;47.86
75617;BME280;64200;55.426;37.758;2023-05-16T05:03:17;99988.28;;;14.36;47.43
75617;BME280;64200;55.426;37.758;2023-05-16T05:08:21;99978.97;;;14.59;46.68
75617;BME280;64200;55.426;37.758;2023-05-16T05:13:22;99985.97;;;14.64;46.21
75617;BME280;64200;55.426;37.758;2023-05-16T05:18:23;99993.72;;;15.05;44.66
75617;BME280;64200;55.426;37.758;2023-05-16T05:23:24;99990.44;;;15.27;43.90
75617;BME280;64200;55.426;37.758;2023-05-16T05:28:25;99994.09;;;15.54;41.80
75617;BME280;64200;55.426;37.758;2023-05-16T05:33:27;100011.47;;;15.73;41.39
75617;BME280;64200;55.426;37.758;2023-05-16T05:38:28;100004.59;;;15.74;39.57
75617;BME280;64200;55.426;37.758;2023-05-16T05:43:29;100012.44;;;16.11;39.65
75617;BME280;64200;55.426;37.758;2023-05-16T05:48:29;100007.19;;;16.24;38.63
75617;BME280;64200;55.426;37.758;2023-05-16T05:53:31;100011.06;;;16.59;38.17
75617;BME280;64200;55.426;37.758;2023-05-16T05:58:32;100020.69;;;16.78;35.80
75617;BME280;64200;55.426;37.758;2023-05-16T06:03:32;100037.47;;;16.93;36.13
75617;BME280;64200;55.426;37.758;2023-05-16T06:08:33;100035.47;;;17.37;35.62
75617;BME280;64200;55.426;37.758;2023-05-16T06:13:33;100028.38;;;17.53;35.14
75617;BME280;64200;55.426;37.758;2023-05-16T06:18:34;100038.66;;;17.67;33.52
75617;BME280;64200;55.426;37.758;2023-05-16T06:23:35;100036.06;;;17.58;33.48
75617;BME280;64200;55.426;37.758;2023-05-16T06:28:36;100037.81;;;18.10;33.22
75617;BME280;64200;55.426;37.758;2023-05-16T06:33:36;100025.28;;;18.34;33.56
75617;BME280;64200;55.426;37.758;2023-05-16T06:38:37;100039.72;;;18.70;32.27
75617;BME280;64200;55.426;37.758;2023-05-16T06:43:39;100049.47;;;18.91;31.25
75617;BME280;64200;55.426;37.758;2023-05-16T06:48:40;100025.59;;;18.87;30.93
75617;BME280;64200;55.426;37.758;2023-05-16T06:53:40;100029.84;;;19.39;29.57
75617;BME280;64200;55.426;37.758;2023-05-16T06:58:41;100018.63;;;19.86;29.17
75617;BME280;64200;55.426;37.758;2023-05-16T07:03:41;100011.78;;;20.12;28.40
75617;BME280;64200;55.426;37.758;2023-05-16T07:08:42;100022.88;;;20.46;28.10
75617;BME280;64200;55.426;37.758;2023-05-16T07:13:42;100015.38;;;20.54;26.82
75617;BME280;64200;55.426;37.758;2023-05-16T07:18:43;100012.09;;;20.80;26.91
75617;BME280;64200;55.426;37.758;2023-05-16T07:23:43;100039.47;;;20.72;25.93
75617;BME280;64200;55.426;37.758;2023-05-16T07:28:44;100009.88;;;20.67;26.54
75617;BME280;64200;55.426;37.758;2023-05-16T07:33:45;100014.13;;;21.35;26.13
75617;BME280;64200;55.426;37.758;2023-05-16T07:38:48;100027.88;;;22.32;25.12
75617;BME280;64200;55.426;37.758;2023-05-16T07:43:49;100019.31;;;22.96;24.90
75617;BME280;64200;55.426;37.758;2023-05-16T07:48:50;100011.69;;;24.19;23.57
75617;BME280;64200;55.426;37.758;2023-05-16T07:53:51;100019.16;;;24.65;22.03
75617;BME280;64200;55.426;37.758;2023-05-16T07:58:52;100027.44;;;25.55;20.57
75617;BME280;64200;55.426;37.758;2023-05-16T08:03:53;100041.19;;;27.14;20.11
75617;BME280;64200;55.426;37.758;2023-05-16T08:08:53;100032.81;;;28.87;18.45
75617;BME280;64200;55.426;37.758;2023-05-16T08:13:54;100028.66;;;29.23;16.97
75617;BME280;64200;55.426;37.758;2023-05-16T08:18:54;100018.50;;;29.22;16.14
75617;BME280;64200;55.426;37.758;2023-05-16T08:23:55;100018.09;;;28.50;16.58
75617;BME280;64200;55.426;37.758;2023-05-16T08:28:56;100027.94;;;30.47;14.84
75617;BME280;64200;55.426;37.758;2023-05-16T08:33:56;100029.53;;;30.68;15.15
75617;BME280;64200;55.426;37.758;2023-05-16T08:38:57;100044.28;;;31.67;14.73
75617;BME280;64200;55.426;37.758;2023-05-16T08:43:57;100025.72;;;30.38;14.74
75617;BME280;64200;55.426;37.758;2023-05-16T08:48:59;100020.41;;;31.08;14.30
75617;BME280;64200;55.426;37.758;2023-05-16T08:54:06;100026.25;;;30.44;13.90
75617;BME280;64200;55.426;37.758;2023-05-16T08:59:10;100006.19;;;31.79;13.91
75617;BME280;64200;55.426;37.758;2023-05-16T09:04:11;99997.84;;;31.63;13.09
75617;BME280;64200;55.426;37.758;2023-05-16T09:09:12;100011.28;;;32.19;13.19
75617;BME280;64200;55.426;37.758;2023-05-16T09:14:13;100019.63;;;32.98;12.53
75617;BME280;64200;55.426;37.758;2023-05-16T09:19:13;100008.94;;;34.79;10.57
75617;BME280;64200;55.426;37.758;2023-05-16T09:24:14;99993.84;;;34.00;11.28
75617;BME280;64200;55.426;37.758;2023-05-16T09:29:15;100002.34;;;34.67;9.97
75617;BME280;64200;55.426;37.758;2023-05-16T09:34:21;100005.31;;;34.10;11.18
75617;BME280;64200;55.426;37.758;2023-05-16T09:39:26;100001.03;;;36.46;9.40
75617;BME280;64200;55.426;37.758;2023-05-16T09:44:26;100005.28;;;35.66;9.52
75617;BME280;64200;55.426;37.758;2023-05-16T09:49:27;99980.69;;;34.68;10.38
75617;BME280;64200;55.426;37.758;2023-05-16T09:54:32;99977.09;;;33.65;10.67
75617;BME280;64200;55.426;37.758;2023-05-16T09:59:37;99990.03;;;33.31;11.42
75617;BME280;64200;55.426;37.758;2023-05-16T10:04:38;99998.25;;;33.68;10.87
75617;BME280;64200;55.426;37.758;2023-05-16T10:09:39;99964.00;;;34.09;10.67
75617;BME280;64200;55.426;37.758;2023-05-16T10:14:41;99973.63;;;35.32;9.92
75617;BME280;64200;55.426;37.758;2023-05-16T10:19:43;99970.59;;;36.08;10.47
75617;BME280;64200;55.426;37.758;2023-05-16T10:24:55;99974.88;;;37.02;10.03
75617;BME280;64200;55.426;37.758;2023-05-16T10:29:58;99960.25;;;37.73;8.17
75617;BME280;64200;55.426;37.758;2023-05-16T10:35:00;99945.22;;;33.75;10.62
75617;BME280;64200;55.426;37.758;2023-05-16T10:40:03;99941.69;;;33.76;11.20
75617;BME280;64200;55.426;37.758;2023-05-16T10:45:18;99957.94;;;35.49;10.54
75617;BME280;64200;55.426;37.758;2023-05-16T10:50:41;99955.91;;;33.39;11.13
75617;BME280;64200;55.426;37.758;2023-05-16T11:06:20;99921.00;;;37.44;9.58
75617;BME280;64200;55.426;37.758;2023-05-16T11:11:42;99920.63;;;36.51;9.94
75617;BME280;64200;55.426;37.758;2023-05-16T11:16:47;99926.56;;;36.53;10.15
75617;BME280;64200;55.426;37.758;2023-05-16T11:22:04;99929.22;;;35.42;10.89
75617;BME280;64200;55.426;37.758;2023-05-16T11:27:08;99932.31;;;35.20;10.85
75617;BME280;64200;55.426;37.758;2023-05-16T11:32:11;99910.41;;;35.68;10.73
75617;BME280;64200;55.426;37.758;2023-05-16T11:37:12;99900.72;;;34.16;11.33
75617;BME280;64200;55.426;37.758;2023-05-16T11:42:13;99898.88;;;33.30;11.94
75617;BME280;64200;55.426;37.758;2023-05-16T11:47:14;99883.44;;;33.03;12.04
75617;BME280;64200;55.426;37.758;2023-05-16T11:52:14;99909.19;;;34.96;11.01
75617;BME280;64200;55.426;37.758;2023-05-16T11:57:15;99899.22;;;34.14;11.10
75617;BME280;64200;55.426;37.758;2023-05-16T12:02:16;99899.34;;;36.32;9.79
75617;BME280;64200;55.426;37.758;2023-05-16T12:07:16;99894.69;;;36.83;9.79
75617;BME280;64200;55.426;37.758;2023-05-16T12:12:19;99914.13;;;31.93;12.09
75617;BME280;64200;55.426;37.758;2023-05-16T12:17:20;99881.22;;;25.64;17.62
75617;BME280;64200;55.426;37.758;2023-05-16T12:22:21;99859.81;;;24.98;18.12
75617;BME280;64200;55.426;37.758;2023-05-16T12:27:25;99875.50;;;24.54;19.36
75617;BME280;64200;55.426;37.758;2023-05-16T12:32:27;99864.50;;;22.92;21.26
75617;BME280;64200;55.426;37.758;2023-05-16T12:37:27;99880.47;;;22.95;21.54
75617;BME280;64200;55.426;37.758;2023-05-16T12:42:28;99859.34;;;22.50;22.19
75617;BME280;64200;55.426;37.758;2023-05-16T12:47:37;99845.53;;;23.21;21.19
75617;BME280;64200;55.426;37.758;2023-05-16T12:52:57;99850.47;;;23.55;21.08
75617;BME280;64200;55.426;37.758;2023-05-16T12:57:59;99849.00;;;23.41;21.31
75617;BME280;64200;55.426;37.758;2023-05-16T13:03:00;99843.13;;;22.98;21.29
75617;BME280;64200;55.426;37.758;2023-05-16T13:08:00;99851.81;;;22.66;22.38
75617;BME280;64200;55.426;37.758;2023-05-16T13:13:01;99849.50;;;22.05;23.39
75617;BME280;64200;55.426;37.758;2023-05-16T13:18:03;99854.72;;;22.34;23.04
75617;BME280;64200;55.426;37.758;2023-05-16T13:23:04;99837.75;;;22.28;23.81
75617;BME280;64200;55.426;37.758;2023-05-16T13:28:05;99829.56;;;22.24;23.87
75617;BME280;64200;55.426;37.758;2023-05-16T13:33:05;99842.66;;;21.82;24.50
75617;BME280;64200;55.426;37.758;2023-05-16T13:38:06;99826.25;;;21.74;24.50
75617;BME280;64200;55.426;37.758;2023-05-16T13:43:06;99840.19;;;21.59;24.46
75617;BME280;64200;55.426;37.758;2023-05-16T13:48:07;99823.38;;;21.23;25.42
75617;BME280;64200;55.426;37.758;2023-05-16T13:53:08;99839.16;;;21.37;25.38
75617;BME280;64200;55.426;37.758;2023-05-16T13:58:08;99831.66;;;21.40;25.31
75617;BME280;64200;55.426;37.758;2023-05-16T14:03:09;99834.28;;;21.19;25.11
75617;BME280;64200;55.426;37.758;2023-05-16T14:08:09;99808.88;;;21.27;25.41
75617;BME280;64200;55.426;37.758;2023-05-16T14:13:10;99820.09;;;21.57;25.24
75617;BME280;64200;55.426;37.758;2023-05-16T14:18:10;99826.88;;;21.67;25.02
75617;BME280;64200;55.426;37.758;2023-05-16T14:23:12;99822.91;;;21.38;24.93
75617;BME280;64200;55.426;37.758;2023-05-16T14:28:13;99825.34;;;20.90;25.29
75617;BME280;64200;55.426;37.758;2023-05-16T14:33:13;99817.47;;;21.02;25.23
75617;BME280;64200;55.426;37.758;2023-05-16T14:38:15;99821.78;;;21.28;25.12
75617;BME280;64200;55.426;37.758;2023-05-16T14:43:16;99831.91;;;21.23;25.56
75617;BME280;64200;55.426;37.758;2023-05-16T14:48:16;99822.13;;;21.18;26.01
75617;BME280;64200;55.426;37.758;2023-05-16T14:53:17;99813.56;;;21.05;26.02
75617;BME280;64200;55.426;37.758;2023-05-16T14:58:18;99836.38;;;20.75;26.88
75617;BME280;64200;55.426;37.758;2023-05-16T15:03:18;99823.03;;;20.45;27.49
75617;BME280;64200;55.426;37.758;2023-05-16T15:08:19;99805.88;;;20.56;27.48
75617;BME280;64200;55.426;37.758;2023-05-16T15:13:20;99826.56;;;20.76;27.49
75617;BME280;64200;55.426;37.758;2023-05-16T15:18:21;99808.47;;;20.54;27.40
75617;BME280;64200;55.426;37.758;2023-05-16T15:23:21;99818.53;;;20.55;27.82
75617;BME280;64200;55.426;37.758;2023-05-16T15:28:22;99819.28;;;20.56;27.33
75617;BME280;64200;55.426;37.758;2023-05-16T15:33:22;99828.63;;;20.50;27.67
75617;BME280;64200;55.426;37.758;2023-05-16T15:38:23;99814.97;;;20.24;27.95
75617;BME280;64200;55.426;37.758;2023-05-16T15:43:23;99807.91;;;20.36;28.05
75617;BME280;64200;55.426;37.758;2023-05-16T15:48:24;99820.06;;;20.31;28.45
75617;BME280;64200;55.426;37.758;2023-05-16T15:53:25;99805.69;;;19.99;28.39
75617;BME280;64200;55.426;37.758;2023-05-16T15:58:25;99827.28;;;20.02;28.89
75617;BME280;64200;55.426;37.758;2023-05-16T16:03:26;99807.66;;;19.79;29.32
75617;BME280;64200;55.426;37.758;2023-05-16T16:08:26;99807.59;;;19.85;29.47
75617;BME280;64200;55.426;37.758;2023-05-16T16:13:27;99803.44;;;19.92;29.04
75617;BME280;64200;55.426;37.758;2023-05-16T16:18:27;99834.66;;;19.75;30.12
75617;BME280;64200;55.426;37.758;2023-05-16T16:23:31;99829.34;;;19.65;30.03
75617;BME280;64200;55.426;37.758;2023-05-16T16:28:32;99826.03;;;19.61;30.27
75617;BME280;64200;55.426;37.758;2023-05-16T16:33:33;99833.34;;;19.45;30.12
75617;BME280;64200;55.426;37.758;2023-05-16T16:38:33;99837.53;;;19.33;30.30
75617;BME280;64200;55.426;37.758;2023-05-16T16:43:35;99846.75;;;19.39;30.20
75617;BME280;64200;55.426;37.758;2023-05-16T16:48:38;99829.16;;;19.10;30.68
75617;BME280;64200;55.426;37.758;2023-05-16T16:53:39;99847.94;;;19.08;31.13
75617;BME280;64200;55.426;37.758;2023-05-16T16:58:40;99845.69;;;18.95;31.86
75617;BME280;64200;55.426;37.758;2023-05-16T17:03:40;99844.97;;;18.66;32.28
75617;BME280;64200;55.426;37.758;2023-05-16T17:08:41;99837.78;;;18.65;32.30
75617;BME280;64200;55.426;37.758;2023-05-16T17:13:42;99846.31;;;18.54;32.79
75617;BME280;64200;55.426;37.758;2023-05-16T17:18:43;99842.50;;;18.29;33.41
75617;BME280;64200;55.426;37.758;2023-05-16T17:23:44;99851.22;;;18.36;33.24
75617;BME280;64200;55.426;37.758;2023-05-16T17:28:44;99852.75;;;18.37;33.13
75617;BME280;64200;55.426;37.758;2023-05-16T17:33:45;99860.22;;;18.35;32.92
75617;BME280;64200;55.426;37.758;2023-05-16T17:38:46;99847.63;;;18.24;33.57
75617;BME280;64200;55.426;37.758;2023-05-16T17:43:46;99851.50;;;18.10;33.97
75617;BME280;64200;55.426;37.758;2023-05-16T17:48:47;99851.75;;;17.95;34.75
75617;BME280;64200;55.426;37.758;2023-05-16T17:53:48;99863.28;;;17.86;34.70
75617;BME280;64200;55.426;37.758;2023-05-16T17:58:49;99853.50;;;17.70;35.66
75617;BME280;64200;55.426;37.758;2023-05-16T18:03:50;99856.06;;;17.56;35.95
75617;BME280;64200;55.426;37.758;2023-05-16T18:08:50;99867.28;;;17.28;36.83
75617;BME280;64200;55.426;37.758;2023-05-16T18:13:51;99883.66;;;17.24;37.02
75617;BME280;64200;55.426;37.758;2023-05-16T18:18:51;99878.91;;;16.93;37.51
75617;BME280;64200;55.426;37.758;2023-05-16T18:23:52;99878.16;;;16.92;37.66
75617;BME280;64200;55.426;37.758;2023-05-16T18:28:53;99884.41;;;16.76;38.28
75617;BME280;64200;55.426;37.758;2023-05-16T18:33:54;99892.19;;;16.86;37.70
75617;BME280;64200;55.426;37.758;2023-05-16T18:38:54;99890.38;;;16.83;37.82
75617;BME280;64200;55.426;37.758;2023-05-16T18:43:55;99891.34;;;16.75;37.98
75617;BME280;64200;55.426;37.758;2023-05-16T18:48:56;99885.94;;;16.65;37.95
75617;BME280;64200;55.426;37.758;2023-05-16T18:53:57;99893.38;;;16.68;38.15
75617;BME280;64200;55.426;37.758;2023-05-16T18:58:57;99889.66;;;16.51;38.75
75617;BME280;64200;55.426;37.758;2023-05-16T19:03:58;99888.78;;;16.33;39.33
75617;BME280;64200;55.426;37.758;2023-05-16T19:08:58;99903.63;;;16.34;39.40
75617;BME280;64200;55.426;37.758;2023-05-16T19:13:59;99899.78;;;16.31;39.56
75617;BME280;64200;55.426;37.758;2023-05-16T19:18:59;99890.91;;;16.12;39.83
75617;BME280;64200;55.426;37.758;2023-05-16T19:24:00;99889.69;;;15.87;41.20
75617;BME280;64200;55.426;37.758;2023-05-16T19:29:01;99883.00;;;15.85;40.83
75617;BME280;64200;55.426;37.758;2023-05-16T19:34:01;99880.28;;;15.70;41.74
75617;BME280;64200;55.426;37.758;2023-05-16T19:39:02;99877.13;;;15.62;41.65
75617;BME280;64200;55.426;37.758;2023-05-16T19:44:03;99894.28;;;15.64;41.52
75617;BME280;64200;55.426;37.758;2023-05-16T19:49:04;99878.00;;;15.48;41.94
75617;BME280;64200;55.426;37.758;2023-05-16T19:54:05;99879.00;;;15.44;42.04
75617;BME280;64200;55.426;37.758;2023-05-16T19:59:09;99885.06;;;15.37;42.23
75617;BME280;64200;55.426;37.758;2023-05-16T20:04:09;99882.16;;;15.32;42.25
75617;BME280;64200;55.426;37.758;2023-05-16T20:09:10;99880.00;;;15.21;42.73
75617;BME280;64200;55.426;37.758;2023-05-16T20:14:11;99892.09;;;15.27;42.46
75617;BME280;64200;55.426;37.758;2023-05-16T20:19:11;99897.94;;;15.23;42.94
75617;BME280;64200;55.426;37.758;2023-05-16T20:24:14;99897.84;;;14.97;43.36
75617;BME280;64200;55.426;37.758;2023-05-16T20:29:14;99892.31;;;15.03;43.45
75617;BME280;64200;55.426;37.758;2023-05-16T20:34:15;99897.84;;;14.97;43.46
75617;BME280;64200;55.426;37.758;2023-05-16T20:39:16;99890.50;;;15.00;43.46
75617;BME280;64200;55.426;37.758;2023-05-16T20:44:17;99886.53;;;14.91;43.78
75617;BME280;64200;55.426;37.758;2023-05-16T20:49:18;99894.69;;;14.89;43.93
75617;BME280;64200;55.426;37.758;2023-05-16T20:54:19;99889.28;;;14.86;44.02
75617;BME280;64200;55.426;37.758;2023-05-16T20:59:20;99887.72;;;14.85;43.87
75617;BME280;64200;55.426;37.758;2023-05-16T21:04:20;99898.50;;;14.86;43.49
75617;BME280;64200;55.426;37.758;2023-05-16T21:09:21;99884.38;;;14.81;43.89
75617;BME280;64200;55.426;37.758;2023-05-16T21:14:22;99886.69;;;14.82;43.90
75617;BME280;64200;55.426;37.758;2023-05-16T21:19:22;99906.34;;;15.03;43.01
75617;BME280;64200;55.426;37.758;2023-05-16T21:24:23;99903.47;;;15.18;43.00
75617;BME280;64200;55.426;37.758;2023-05-16T21:29:23;99901.00;;;15.05;43.37
75617;BME280;64200;55.426;37.758;2023-05-16T21:34:24;99890.84;;;15.07;42.93
75617;BME280;64200;55.426;37.758;2023-05-16T21:39:25;99898.13;;;15.20;42.58
75617;BME280;64200;55.426;37.758;2023-05-16T21:44:25;99879.28;;;15.26;42.48
75617;BME280;64200;55.426;37.758;2023-05-16T21:49:26;99880.19;;;15.38;42.11
75617;BME280;64200;55.426;37.758;2023-05-16T21:54:27;99881.19;;;15.35;41.75
75617;BME280;64200;55.426;37.758;2023-05-16T21:59:27;99882.25;;;15.37;41.68
75617;BME280;64200;55.426;37.758;2023-05-16T22:04:29;99883.50;;;15.36;41.52
75617;BME280;64200;55.426;37.758;2023-05-16T22:09:30;99877.28;;;15.26;41.46
75617;BME280;64200;55.426;37.758;2023-05-16T22:14:30;99876.28;;;15.30;41.35
75617;BME280;64200;55.426;37.758;2023-05-16T22:19:31;99881.19;;;15.14;42.06
75617;BME280;64200;55.426;37.758;2023-05-16T22:24:32;99886.81;;;14.93;42.70
75617;BME280;64200;55.426;37.758;2023-05-16T22:29:32;99877.69;;;14.78;43.48
75617;BME280;64200;55.426;37.758;2023-05-16T22:34:37;99872.47;;;14.71;43.11
75617;BME280;64200;55.426;37.758;2023-05-16T22:39:40;99880.13;;;14.70;43.45
75617;BME280;64200;55.426;37.758;2023-05-16T22:44:40;99879.44;;;14.61;43.58
75617;BME280;64200;55.426;37.758;2023-05-16T22:49:41;99891.66;;;14.57;43.71
75617;BME280;64200;55.426;37.758;2023-05-16T22:54:42;99884.31;;;14.60;44.07
75617;BME280;64200;55.426;37.758;2023-05-16T22:59:42;99881.88;;;14.68;43.41
75617;BME280;64200;55.426;37.758;2023-05-16T23:04:43;99878.50;;;14.64;43.91
75617;BME280;64200;55.426;37.758;2023-05-16T23:09:43;99888.00;;;14.66;43.42
75617;BME280;64200;55.426;37.758;2023-05-16T23:14:44;99887.72;;;14.64;43.36
75617;BME280;64200;55.426;37.758;2023-05-16T23:19:44;99883.56;;;14.80;42.81
75617;BME280;64200;55.426;37.758;2023-05-16T23:24:45;99891.72;;;14.78;43.04
75617;BME280;64200;55.426;37.758;2023-05-16T23:29:46;99884.19;;;14.69;43.19
75617;BME280;64200;55.426;37.758;2023-05-16T23:34:46;99892.13;;;14.71;43.11
75617;BME280;64200;55.426;37.758;2023-05-16T23:39:47;99885.72;;;14.35;43.87
75617;BME280;64200;55.426;37.758;2023-05-16T23:44:47;99892.41;;;14.37;44.31
75617;BME280;64200;55.426;37.758;2023-05-16T23:49:48;99884.47;;;14.06;45.63
75617;BME280;64200;55.426;37.758;2023-05-16T23:54:49;99891.28;;;13.84;45.84
75617;BME280;64200;55.426;37.758;2023-05-16T23:59:49;99893.97;;;13.79;46.38
